sensor_id;sensor_type;location;lat;lon;timestamp;temperature;humidity
2459;DHT22;1241;50.920;6.936;2022-08-14T00:00:47;23.00;93.10
2459;DHT22;1241;50.920;6.936;2022-08-14T00:03:21;22.90;93.80
2459;DHT22;1241;50.920;6.936;2022-08-14T00:05:47;23.00;94.20
2459;DHT22;1241;50.920;6.936;2022-08-14T00:08:13;23.00;94.70
2459;DHT22;1241;50.920;6.936;2022-08-14T00:10:38;23.00;95.50
2459;DHT22;1241;50.920;6.936;2022-08-14T00:13:04;22.90;96.20
2459;DHT22;1241;50.920;6.936;2022-08-14T00:15:34;22.90;97.10
2459;DHT22;1241;50.920;6.936;2022-08-14T00:18:01;22.80;97.80
2459;DHT22;1241;50.920;6.936;2022-08-14T00:20:30;22.80;98.70
2459;DHT22;1241;50.920;6.936;2022-08-14T00:22:56;22.70;99.10
2459;DHT22;1241;50.920;6.936;2022-08-14T00:25:22;22.70;99.90
2459;DHT22;1241;50.920;6.936;2022-08-14T00:27:48;22.70;99.90
2459;DHT22;1241;50.920;6.936;2022-08-14T00:30:14;22.70;99.90
2459;DHT22;1241;50.920;6.936;2022-08-14T00:32:42;22.60;99.90
2459;DHT22;1241;50.920;6.936;2022-08-14T00:35:09;22.60;99.90
2459;DHT22;1241;50.920;6.936;2022-08-14T00:37:38;22.60;99.90
2459;DHT22;1241;50.920;6.936;2022-08-14T00:40:05;22.60;99.90
2459;DHT22;1241;50.920;6.936;2022-08-14T00:42:30;22.60;99.90
2459;DHT22;1241;50.920;6.936;2022-08-14T00:44:56;22.60;99.90
2459;DHT22;1241;50.920;6.936;2022-08-14T00:47:22;22.50;99.90
2459;DHT22;1241;50.920;6.936;2022-08-14T00:49:52;22.40;99.90
2459;DHT22;1241;50.920;6.936;2022-08-14T00:52:19;22.40;99.90
2459;DHT22;1241;50.920;6.936;2022-08-14T00:54:47;22.40;99.90
2459;DHT22;1241;50.920;6.936;2022-08-14T00:57:24;22.40;99.90
2459;DHT22;1241;50.920;6.936;2022-08-14T00:59:50;22.30;99.90
2459;DHT22;1241;50.920;6.936;2022-08-14T01:02:18;22.20;99.90
2459;DHT22;1241;50.920;6.936;2022-08-14T01:04:52;22.20;99.90
2459;DHT22;1241;50.920;6.936;2022-08-14T01:07:20;22.20;99.90
2459;DHT22;1241;50.920;6.936;2022-08-14T01:09:51;22.20;99.90
2459;DHT22;1241;50.920;6.936;2022-08-14T01:12:19;22.10;99.90
2459;DHT22;1241;50.920;6.936;2022-08-14T01:14:46;22.00;99.90
2459;DHT22;1241;50.920;6.936;2022-08-14T01:17:21;22.00;99.90
2459;DHT22;1241;50.920;6.936;2022-08-14T01:19:48;22.00;99.90
2459;DHT22;1241;50.920;6.936;2022-08-14T01:22:33;21.80;99.90
2459;DHT22;1241;50.920;6.936;2022-08-14T01:25:00;21.70;99.90
2459;DHT22;1241;50.920;6.936;2022-08-14T01:27:26;21.70;99.90
2459;DHT22;1241;50.920;6.936;2022-08-14T01:29:55;21.70;99.90
2459;DHT22;1241;50.920;6.936;2022-08-14T01:32:21;21.70;99.90
2459;DHT22;1241;50.920;6.936;2022-08-14T01:34:53;21.70;99.90
2459;DHT22;1241;50.920;6.936;2022-08-14T01:37:20;21.70;99.90
2459;DHT22;1241;50.920;6.936;2022-08-14T01:39:53;21.80;99.90
2459;DHT22;1241;50.920;6.936;2022-08-14T01:42:19;21.70;99.90
2459;DHT22;1241;50.920;6.936;2022-08-14T01:44:46;21.70;99.90
2459;DHT22;1241;50.920;6.936;2022-08-14T01:47:15;21.70;99.90
2459;DHT22;1241;50.920;6.936;2022-08-14T01:49:44;21.70;99.90
2459;DHT22;1241;50.920;6.936;2022-08-14T01:52:10;21.70;99.90
2459;DHT22;1241;50.920;6.936;2022-08-14T01:54:37;21.70;99.90
2459;DHT22;1241;50.920;6.936;2022-08-14T01:57:03;21.70;99.90
2459;DHT22;1241;50.920;6.936;2022-08-14T01:59:31;21.70;99.90
2459;DHT22;1241;50.920;6.936;2022-08-14T02:01:59;21.70;99.90
2459;DHT22;1241;50.920;6.936;2022-08-14T02:04:33;21.70;99.90
2459;DHT22;1241;50.920;6.936;2022-08-14T02:06:59;21.60;99.90
2459;DHT22;1241;50.920;6.936;2022-08-14T02:09:27;21.60;99.90
2459;DHT22;1241;50.920;6.936;2022-08-14T02:11:54;21.60;99.90
2459;DHT22;1241;50.920;6.936;2022-08-14T02:14:20;21.60;99.90
2459;DHT22;1241;50.920;6.936;2022-08-14T02:16:49;21.60;99.90
2459;DHT22;1241;50.920;6.936;2022-08-14T02:19:20;21.60;99.90
2459;DHT22;1241;50.920;6.936;2022-08-14T02:21:50;21.60;99.90
2459;DHT22;1241;50.920;6.936;2022-08-14T02:24:18;21.50;99.90
2459;DHT22;1241;50.920;6.936;2022-08-14T02:26:46;21.50;99.90
2459;DHT22;1241;50.920;6.936;2022-08-14T02:29:16;21.40;99.90
2459;DHT22;1241;50.920;6.936;2022-08-14T02:31:45;21.40;99.90
2459;DHT22;1241;50.920;6.936;2022-08-14T02:34:25;21.30;99.90
2459;DHT22;1241;50.920;6.936;2022-08-14T02:36:57;21.20;99.90
2459;DHT22;1241;50.920;6.936;2022-08-14T02:39:24;21.20;99.90
2459;DHT22;1241;50.920;6.936;2022-08-14T02:41:50;21.20;99.90
2459;DHT22;1241;50.920;6.936;2022-08-14T02:44:17;21.10;99.90
2459;DHT22;1241;50.920;6.936;2022-08-14T02:46:46;21.00;99.90
2459;DHT22;1241;50.920;6.936;2022-08-14T02:49:12;21.00;99.90
2459;DHT22;1241;50.920;6.936;2022-08-14T02:51:38;21.00;99.90
2459;DHT22;1241;50.920;6.936;2022-08-14T02:54:06;21.00;99.90
2459;DHT22;1241;50.920;6.936;2022-08-14T02:56:32;20.90;99.90
2459;DHT22;1241;50.920;6.936;2022-08-14T02:59:00;20.90;99.90
2459;DHT22;1241;50.920;6.936;2022-08-14T03:01:27;20.90;99.90
2459;DHT22;1241;50.920;6.936;2022-08-14T03:03:53;20.80;99.90
2459;DHT22;1241;50.920;6.936;2022-08-14T03:06:22;20.90;99.90
2459;DHT22;1241;50.920;6.936;2022-08-14T03:08:52;20.90;99.90
2459;DHT22;1241;50.920;6.936;2022-08-14T03:11:19;20.90;99.90
2459;DHT22;1241;50.920;6.936;2022-08-14T03:13:48;20.90;99.90
2459;DHT22;1241;50.920;6.936;2022-08-14T03:16:19;20.80;99.90
2459;DHT22;1241;50.920;6.936;2022-08-14T03:18:46;20.80;99.90
2459;DHT22;1241;50.920;6.936;2022-08-14T03:21:17;20.80;99.90
2459;DHT22;1241;50.920;6.936;2022-08-14T03:23:47;20.70;99.90
2459;DHT22;1241;50.920;6.936;2022-08-14T03:26:15;20.70;99.90
2459;DHT22;1241;50.920;6.936;2022-08-14T03:28:45;20.50;99.90
2459;DHT22;1241;50.920;6.936;2022-08-14T03:31:11;20.60;99.90
2459;DHT22;1241;50.920;6.936;2022-08-14T03:33:38;20.50;99.90
2459;DHT22;1241;50.920;6.936;2022-08-14T03:36:10;20.60;99.90
2459;DHT22;1241;50.920;6.936;2022-08-14T03:38:43;20.60;99.90
2459;DHT22;1241;50.920;6.936;2022-08-14T03:41:10;20.70;99.90
2459;DHT22;1241;50.920;6.936;2022-08-14T03:43:42;20.60;99.90
2459;DHT22;1241;50.920;6.936;2022-08-14T03:46:08;20.70;99.90
2459;DHT22;1241;50.920;6.936;2022-08-14T03:48:35;20.60;99.90
2459;DHT22;1241;50.920;6.936;2022-08-14T03:51:02;20.70;99.90
2459;DHT22;1241;50.920;6.936;2022-08-14T03:53:28;20.70;99.90
2459;DHT22;1241;50.920;6.936;2022-08-14T03:55:54;20.60;99.90
2459;DHT22;1241;50.920;6.936;2022-08-14T03:58:23;20.60;99.90
2459;DHT22;1241;50.920;6.936;2022-08-14T04:00:49;20.60;99.90
2459;DHT22;1241;50.920;6.936;2022-08-14T04:03:15;20.60;99.90
2459;DHT22;1241;50.920;6.936;2022-08-14T04:05:41;20.50;99.90
2459;DHT22;1241;50.920;6.936;2022-08-14T04:08:10;20.40;99.90
2459;DHT22;1241;50.920;6.936;2022-08-14T04:10:36;20.40;99.90
2459;DHT22;1241;50.920;6.936;2022-08-14T04:13:03;20.40;99.90
2459;DHT22;1241;50.920;6.936;2022-08-14T04:15:34;20.40;99.90
2459;DHT22;1241;50.920;6.936;2022-08-14T04:18:06;20.30;99.90
2459;DHT22;1241;50.920;6.936;2022-08-14T04:20:37;20.40;99.90
2459;DHT22;1241;50.920;6.936;2022-08-14T04:23:05;20.50;99.90
2459;DHT22;1241;50.920;6.936;2022-08-14T04:25:32;20.40;99.90
2459;DHT22;1241;50.920;6.936;2022-08-14T04:27:59;20.40;99.90
2459;DHT22;1241;50.920;6.936;2022-08-14T04:30:25;20.50;99.90
2459;DHT22;1241;50.920;6.936;2022-08-14T04:32:54;20.50;99.90
2459;DHT22;1241;50.920;6.936;2022-08-14T04:35:20;20.50;99.90
2459;DHT22;1241;50.920;6.936;2022-08-14T04:37:46;20.60;99.90
2459;DHT22;1241;50.920;6.936;2022-08-14T04:40:47;20.60;99.90
2459;DHT22;1241;50.920;6.936;2022-08-14T04:43:31;20.70;99.90
2459;DHT22;1241;50.920;6.936;2022-08-14T04:46:07;20.60;99.90
2459;DHT22;1241;50.920;6.936;2022-08-14T04:48:33;20.60;99.90
2459;DHT22;1241;50.920;6.936;2022-08-14T04:50:59;20.60;99.90
2459;DHT22;1241;50.920;6.936;2022-08-14T04:53:26;20.60;99.90
2459;DHT22;1241;50.920;6.936;2022-08-14T04:55:54;20.60;99.90
2459;DHT22;1241;50.920;6.936;2022-08-14T04:58:20;20.70;99.90
2459;DHT22;1241;50.920;6.936;2022-08-14T05:00:48;20.80;99.90
2459;DHT22;1241;50.920;6.936;2022-08-14T05:03:21;20.80;99.90
2459;DHT22;1241;50.920;6.936;2022-08-14T05:05:48;20.90;99.90
2459;DHT22;1241;50.920;6.936;2022-08-14T05:08:15;20.80;99.90
2459;DHT22;1241;50.920;6.936;2022-08-14T05:10:49;20.80;99.90
2459;DHT22;1241;50.920;6.936;2022-08-14T05:13:17;20.90;99.90
2459;DHT22;1241;50.920;6.936;2022-08-14T05:15:44;20.90;99.90
2459;DHT22;1241;50.920;6.936;2022-08-14T05:18:19;21.10;99.90
2459;DHT22;1241;50.920;6.936;2022-08-14T05:20:49;21.30;99.90
2459;DHT22;1241;50.920;6.936;2022-08-14T05:23:18;21.70;99.90
2459;DHT22;1241;50.920;6.936;2022-08-14T05:25:45;22.20;99.90
2459;DHT22;1241;50.920;6.936;2022-08-14T05:28:17;22.50;99.90
2459;DHT22;1241;50.920;6.936;2022-08-14T05:30:48;22.70;99.90
2459;DHT22;1241;50.920;6.936;2022-08-14T05:33:15;22.80;99.90
2459;DHT22;1241;50.920;6.936;2022-08-14T05:35:43;22.90;99.90
2459;DHT22;1241;50.920;6.936;2022-08-14T05:38:14;23.10;99.90
2459;DHT22;1241;50.920;6.936;2022-08-14T05:40:45;23.30;99.90
2459;DHT22;1241;50.920;6.936;2022-08-14T05:43:12;23.50;99.90
2459;DHT22;1241;50.920;6.936;2022-08-14T05:45:39;23.70;99.90
2459;DHT22;1241;50.920;6.936;2022-08-14T05:48:06;23.60;99.90
2459;DHT22;1241;50.920;6.936;2022-08-14T05:50:33;23.50;99.90
2459;DHT22;1241;50.920;6.936;2022-08-14T05:53:00;23.50;99.90
2459;DHT22;1241;50.920;6.936;2022-08-14T05:55:26;23.50;99.90
2459;DHT22;1241;50.920;6.936;2022-08-14T06:00:20;23.50;99.90
2459;DHT22;1241;50.920;6.936;2022-08-14T06:02:46;23.50;99.90
2459;DHT22;1241;50.920;6.936;2022-08-14T06:05:12;23.90;99.90
2459;DHT22;1241;50.920;6.936;2022-08-14T06:07:39;24.10;99.90
2459;DHT22;1241;50.920;6.936;2022-08-14T06:10:06;24.40;99.90
2459;DHT22;1241;50.920;6.936;2022-08-14T06:12:32;24.60;99.90
2459;DHT22;1241;50.920;6.936;2022-08-14T06:14:59;24.80;99.90
2459;DHT22;1241;50.920;6.936;2022-08-14T06:17:26;25.10;99.90
2459;DHT22;1241;50.920;6.936;2022-08-14T06:19:52;25.20;99.90
2459;DHT22;1241;50.920;6.936;2022-08-14T06:22:18;25.50;99.90
2459;DHT22;1241;50.920;6.936;2022-08-14T06:24:44;25.70;99.90
2459;DHT22;1241;50.920;6.936;2022-08-14T06:27:10;25.90;99.90
2459;DHT22;1241;50.920;6.936;2022-08-14T06:29:37;26.40;99.90
2459;DHT22;1241;50.920;6.936;2022-08-14T06:32:04;26.90;99.90
2459;DHT22;1241;50.920;6.936;2022-08-14T06:34:30;27.40;99.90
2459;DHT22;1241;50.920;6.936;2022-08-14T06:36:56;27.70;99.90
2459;DHT22;1241;50.920;6.936;2022-08-14T06:39:22;27.90;99.90
2459;DHT22;1241;50.920;6.936;2022-08-14T06:41:48;28.30;99.90
2459;DHT22;1241;50.920;6.936;2022-08-14T06:44:14;28.70;99.90
2459;DHT22;1241;50.920;6.936;2022-08-14T06:46:39;29.00;99.90
2459;DHT22;1241;50.920;6.936;2022-08-14T06:49:05;29.20;99.90
2459;DHT22;1241;50.920;6.936;2022-08-14T06:51:31;29.30;99.90
2459;DHT22;1241;50.920;6.936;2022-08-14T06:53:57;29.10;99.90
2459;DHT22;1241;50.920;6.936;2022-08-14T06:56:23;28.80;99.90
2459;DHT22;1241;50.920;6.936;2022-08-14T06:58:49;28.70;99.90
2459;DHT22;1241;50.920;6.936;2022-08-14T07:01:15;28.60;99.90
2459;DHT22;1241;50.920;6.936;2022-08-14T07:03:59;28.70;99.90
2459;DHT22;1241;50.920;6.936;2022-08-14T07:06:44;28.80;99.90
2459;DHT22;1241;50.920;6.936;2022-08-14T07:09:10;28.90;99.90
2459;DHT22;1241;50.920;6.936;2022-08-14T07:11:36;28.90;99.90
2459;DHT22;1241;50.920;6.936;2022-08-14T07:14:02;28.70;99.90
2459;DHT22;1241;50.920;6.936;2022-08-14T07:16:28;28.50;99.90
2459;DHT22;1241;50.920;6.936;2022-08-14T07:18:53;28.50;99.90
2459;DHT22;1241;50.920;6.936;2022-08-14T07:21:20;28.80;99.90
2459;DHT22;1241;50.920;6.936;2022-08-14T07:23:46;29.30;99.90
2459;DHT22;1241;50.920;6.936;2022-08-14T07:26:12;29.50;99.90
2459;DHT22;1241;50.920;6.936;2022-08-14T07:28:39;29.30;99.90
2459;DHT22;1241;50.920;6.936;2022-08-14T07:31:07;29.10;99.90
2459;DHT22;1241;50.920;6.936;2022-08-14T07:33:39;28.80;99.90
2459;DHT22;1241;50.920;6.936;2022-08-14T07:36:06;28.50;99.90
2459;DHT22;1241;50.920;6.936;2022-08-14T07:38:34;28.50;99.90
2459;DHT22;1241;50.920;6.936;2022-08-14T07:41:01;28.60;99.90
2459;DHT22;1241;50.920;6.936;2022-08-14T07:43:27;28.50;99.90
2459;DHT22;1241;50.920;6.936;2022-08-14T07:45:53;28.50;99.90
2459;DHT22;1241;50.920;6.936;2022-08-14T07:48:18;28.70;99.90
2459;DHT22;1241;50.920;6.936;2022-08-14T07:50:45;28.90;99.90
2459;DHT22;1241;50.920;6.936;2022-08-14T07:53:14;29.00;99.90
2459;DHT22;1241;50.920;6.936;2022-08-14T07:55:41;28.90;99.90
2459;DHT22;1241;50.920;6.936;2022-08-14T07:58:07;28.80;99.90
2459;DHT22;1241;50.920;6.936;2022-08-14T08:00:33;28.50;99.90
2459;DHT22;1241;50.920;6.936;2022-08-14T08:02:59;28.50;99.90
2459;DHT22;1241;50.920;6.936;2022-08-14T08:05:25;28.40;99.90
2459;DHT22;1241;50.920;6.936;2022-08-14T08:07:52;28.20;99.90
2459;DHT22;1241;50.920;6.936;2022-08-14T08:10:22;28.20;99.90
2459;DHT22;1241;50.920;6.936;2022-08-14T08:13:12;28.20;99.90
2459;DHT22;1241;50.920;6.936;2022-08-14T08:15:40;28.00;99.90
2459;DHT22;1241;50.920;6.936;2022-08-14T08:18:09;28.20;99.90
2459;DHT22;1241;50.920;6.936;2022-08-14T08:20:39;28.30;99.90
2459;DHT22;1241;50.920;6.936;2022-08-14T08:23:06;28.40;99.90
2459;DHT22;1241;50.920;6.936;2022-08-14T08:25:38;28.30;99.90
2459;DHT22;1241;50.920;6.936;2022-08-14T08:28:08;28.20;99.90
2459;DHT22;1241;50.920;6.936;2022-08-14T08:30:39;28.10;99.90
2459;DHT22;1241;50.920;6.936;2022-08-14T08:33:06;28.10;99.90
2459;DHT22;1241;50.920;6.936;2022-08-14T08:35:34;28.00;99.90
2459;DHT22;1241;50.920;6.936;2022-08-14T08:38:06;28.00;99.90
2459;DHT22;1241;50.920;6.936;2022-08-14T08:40:35;28.20;99.90
2459;DHT22;1241;50.920;6.936;2022-08-14T08:43:06;28.30;99.90
2459;DHT22;1241;50.920;6.936;2022-08-14T08:45:34;28.40;99.90
2459;DHT22;1241;50.920;6.936;2022-08-14T08:48:01;28.40;99.90
2459;DHT22;1241;50.920;6.936;2022-08-14T08:50:33;28.40;99.90
2459;DHT22;1241;50.920;6.936;2022-08-14T08:53:07;28.40;99.90
2459;DHT22;1241;50.920;6.936;2022-08-14T08:55:36;28.30;99.90
2459;DHT22;1241;50.920;6.936;2022-08-14T08:58:06;28.40;99.90
2459;DHT22;1241;50.920;6.936;2022-08-14T09:00:34;28.40;99.90
2459;DHT22;1241;50.920;6.936;2022-08-14T09:03:06;28.40;99.90
2459;DHT22;1241;50.920;6.936;2022-08-14T09:05:34;28.30;99.90
2459;DHT22;1241;50.920;6.936;2022-08-14T09:08:21;28.20;99.90
2459;DHT22;1241;50.920;6.936;2022-08-14T09:10:47;28.30;99.90
2459;DHT22;1241;50.920;6.936;2022-08-14T09:13:14;28.30;99.90
2459;DHT22;1241;50.920;6.936;2022-08-14T09:15:43;28.30;99.90
2459;DHT22;1241;50.920;6.936;2022-08-14T09:18:10;28.30;99.90
2459;DHT22;1241;50.920;6.936;2022-08-14T09:20:38;28.40;99.90
2459;DHT22;1241;50.920;6.936;2022-08-14T09:23:09;28.40;99.90
2459;DHT22;1241;50.920;6.936;2022-08-14T09:25:36;28.40;99.90
2459;DHT22;1241;50.920;6.936;2022-08-14T09:28:03;28.40;99.90
2459;DHT22;1241;50.920;6.936;2022-08-14T09:30:31;28.40;99.90
2459;DHT22;1241;50.920;6.936;2022-08-14T09:41:29;28.60;99.90
2459;DHT22;1241;50.920;6.936;2022-08-14T09:44:14;28.70;99.90
2459;DHT22;1241;50.920;6.936;2022-08-14T09:46:54;28.80;99.90
2459;DHT22;1241;50.920;6.936;2022-08-14T09:49:38;28.90;99.90
2459;DHT22;1241;50.920;6.936;2022-08-14T09:52:12;29.00;99.90
2459;DHT22;1241;50.920;6.936;2022-08-14T09:54:47;29.10;99.90
2459;DHT22;1241;50.920;6.936;2022-08-14T09:57:29;29.20;99.90
2459;DHT22;1241;50.920;6.936;2022-08-14T09:59:56;29.40;99.90
2459;DHT22;1241;50.920;6.936;2022-08-14T10:02:28;29.60;99.90
2459;DHT22;1241;50.920;6.936;2022-08-14T10:05:03;29.70;99.90
2459;DHT22;1241;50.920;6.936;2022-08-14T10:07:35;29.90;98.90
2459;DHT22;1241;50.920;6.936;2022-08-14T10:10:03;29.90;97.50
2459;DHT22;1241;50.920;6.936;2022-08-14T10:12:46;29.90;96.90
2459;DHT22;1241;50.920;6.936;2022-08-14T10:15:19;29.80;93.30
2459;DHT22;1241;50.920;6.936;2022-08-14T10:17:46;29.80;94.10
2459;DHT22;1241;50.920;6.936;2022-08-14T10:20:15;30.00;93.20
2459;DHT22;1241;50.920;6.936;2022-08-14T10:22:41;30.00;93.00
2459;DHT22;1241;50.920;6.936;2022-08-14T10:25:10;30.10;94.20
2459;DHT22;1241;50.920;6.936;2022-08-14T10:27:36;30.00;93.50
2459;DHT22;1241;50.920;6.936;2022-08-14T10:30:02;30.00;93.50
2459;DHT22;1241;50.920;6.936;2022-08-14T10:32:46;30.00;92.90
2459;DHT22;1241;50.920;6.936;2022-08-14T10:35:14;30.10;92.30
2459;DHT22;1241;50.920;6.936;2022-08-14T10:37:50;30.20;91.90
2459;DHT22;1241;50.920;6.936;2022-08-14T10:40:29;30.20;90.90
2459;DHT22;1241;50.920;6.936;2022-08-14T10:42:55;30.30;91.00
2459;DHT22;1241;50.920;6.936;2022-08-14T10:45:23;30.30;91.00
2459;DHT22;1241;50.920;6.936;2022-08-14T10:47:50;30.50;90.50
2459;DHT22;1241;50.920;6.936;2022-08-14T10:50:28;30.70;87.90
2459;DHT22;1241;50.920;6.936;2022-08-14T10:52:57;30.80;86.10
2459;DHT22;1241;50.920;6.936;2022-08-14T10:55:31;30.70;85.40
2459;DHT22;1241;50.920;6.936;2022-08-14T10:58:00;30.80;85.60
2459;DHT22;1241;50.920;6.936;2022-08-14T11:00:27;30.90;85.80
2459;DHT22;1241;50.920;6.936;2022-08-14T11:02:59;30.90;85.10
2459;DHT22;1241;50.920;6.936;2022-08-14T11:05:36;30.90;85.70
2459;DHT22;1241;50.920;6.936;2022-08-14T11:08:03;30.90;84.40
2459;DHT22;1241;50.920;6.936;2022-08-14T11:10:40;31.00;83.30
2459;DHT22;1241;50.920;6.936;2022-08-14T11:13:16;31.10;82.20
2459;DHT22;1241;50.920;6.936;2022-08-14T11:15:46;31.10;82.20
2459;DHT22;1241;50.920;6.936;2022-08-14T11:18:14;31.10;82.10
2459;DHT22;1241;50.920;6.936;2022-08-14T11:20:49;31.10;82.10
2459;DHT22;1241;50.920;6.936;2022-08-14T11:23:19;31.00;80.40
2459;DHT22;1241;50.920;6.936;2022-08-14T11:25:48;31.00;80.00
2459;DHT22;1241;50.920;6.936;2022-08-14T11:28:14;31.20;74.00
2459;DHT22;1241;50.920;6.936;2022-08-14T11:30:46;31.30;70.70
2459;DHT22;1241;50.920;6.936;2022-08-14T11:33:13;31.60;72.00
2459;DHT22;1241;50.920;6.936;2022-08-14T11:35:46;31.70;71.40
2459;DHT22;1241;50.920;6.936;2022-08-14T11:38:13;31.80;71.30
2459;DHT22;1241;50.920;6.936;2022-08-14T11:40:39;31.80;71.40
2459;DHT22;1241;50.920;6.936;2022-08-14T11:43:09;31.80;71.20
2459;DHT22;1241;50.920;6.936;2022-08-14T11:45:36;31.80;71.70
2459;DHT22;1241;50.920;6.936;2022-08-14T11:48:23;31.80;71.10
2459;DHT22;1241;50.920;6.936;2022-08-14T11:50:51;31.90;70.10
2459;DHT22;1241;50.920;6.936;2022-08-14T11:53:28;31.80;70.50
2459;DHT22;1241;50.920;6.936;2022-08-14T11:56:03;31.80;70.90
2459;DHT22;1241;50.920;6.936;2022-08-14T11:58:32;31.70;71.10
2459;DHT22;1241;50.920;6.936;2022-08-14T12:01:00;31.60;71.70
2459;DHT22;1241;50.920;6.936;2022-08-14T12:03:42;31.60;71.40
2459;DHT22;1241;50.920;6.936;2022-08-14T12:06:16;31.60;71.40
2459;DHT22;1241;50.920;6.936;2022-08-14T12:08:42;31.90;71.30
2459;DHT22;1241;50.920;6.936;2022-08-14T12:11:13;31.90;71.40
2459;DHT22;1241;50.920;6.936;2022-08-14T12:13:40;31.90;71.10
2459;DHT22;1241;50.920;6.936;2022-08-14T12:16:11;31.70;71.40
2459;DHT22;1241;50.920;6.936;2022-08-14T12:18:45;31.60;71.10
2459;DHT22;1241;50.920;6.936;2022-08-14T12:21:20;31.70;71.70
2459;DHT22;1241;50.920;6.936;2022-08-14T12:24:04;31.60;71.60
2459;DHT22;1241;50.920;6.936;2022-08-14T12:26:30;31.70;72.10
2459;DHT22;1241;50.920;6.936;2022-08-14T12:29:08;31.60;71.80
2459;DHT22;1241;50.920;6.936;2022-08-14T12:31:35;31.50;72.00
2459;DHT22;1241;50.920;6.936;2022-08-14T12:34:04;31.50;72.30
2459;DHT22;1241;50.920;6.936;2022-08-14T12:36:30;31.40;72.20
2459;DHT22;1241;50.920;6.936;2022-08-14T12:38:57;31.50;71.80
2459;DHT22;1241;50.920;6.936;2022-08-14T12:41:24;31.70;71.90
2459;DHT22;1241;50.920;6.936;2022-08-14T12:43:56;32.00;70.70
2459;DHT22;1241;50.920;6.936;2022-08-14T12:46:28;32.20;71.10
2459;DHT22;1241;50.920;6.936;2022-08-14T12:48:57;32.40;70.70
2459;DHT22;1241;50.920;6.936;2022-08-14T12:51:25;32.50;69.60
2459;DHT22;1241;50.920;6.936;2022-08-14T12:53:52;32.60;69.20
2459;DHT22;1241;50.920;6.936;2022-08-14T12:56:20;32.70;68.50
2459;DHT22;1241;50.920;6.936;2022-08-14T12:58:51;32.90;66.90
2459;DHT22;1241;50.920;6.936;2022-08-14T13:01:22;33.00;66.30
2459;DHT22;1241;50.920;6.936;2022-08-14T13:03:49;33.10;66.20
2459;DHT22;1241;50.920;6.936;2022-08-14T13:06:15;33.20;65.10
2459;DHT22;1241;50.920;6.936;2022-08-14T13:08:42;33.30;64.90
2459;DHT22;1241;50.920;6.936;2022-08-14T13:11:11;33.50;65.20
2459;DHT22;1241;50.920;6.936;2022-08-14T13:13:42;33.60;64.90
2459;DHT22;1241;50.920;6.936;2022-08-14T13:16:10;33.90;64.20
2459;DHT22;1241;50.920;6.936;2022-08-14T13:18:42;34.10;63.50
2459;DHT22;1241;50.920;6.936;2022-08-14T13:21:12;34.20;63.10
2459;DHT22;1241;50.920;6.936;2022-08-14T13:23:40;34.00;62.60
2459;DHT22;1241;50.920;6.936;2022-08-14T13:26:09;33.90;62.80
2459;DHT22;1241;50.920;6.936;2022-08-14T13:28:38;33.80;63.10
2459;DHT22;1241;50.920;6.936;2022-08-14T13:31:06;33.60;63.10
2459;DHT22;1241;50.920;6.936;2022-08-14T13:33:34;33.30;62.50
2459;DHT22;1241;50.920;6.936;2022-08-14T13:36:02;33.30;62.30
2459;DHT22;1241;50.920;6.936;2022-08-14T13:38:28;33.00;62.80
2459;DHT22;1241;50.920;6.936;2022-08-14T13:40:54;32.80;63.60
2459;DHT22;1241;50.920;6.936;2022-08-14T13:43:21;32.60;64.30
2459;DHT22;1241;50.920;6.936;2022-08-14T13:45:50;32.20;65.60
2459;DHT22;1241;50.920;6.936;2022-08-14T13:48:16;32.00;65.80
2459;DHT22;1241;50.920;6.936;2022-08-14T13:50:44;31.90;66.20
2459;DHT22;1241;50.920;6.936;2022-08-14T13:53:11;31.80;66.80
2459;DHT22;1241;50.920;6.936;2022-08-14T13:55:40;32.00;67.30
2459;DHT22;1241;50.920;6.936;2022-08-14T13:58:07;32.10;67.00
2459;DHT22;1241;50.920;6.936;2022-08-14T14:00:36;32.30;67.00
2459;DHT22;1241;50.920;6.936;2022-08-14T14:03:03;32.40;66.30
2459;DHT22;1241;50.920;6.936;2022-08-14T14:05:36;32.30;65.30
2459;DHT22;1241;50.920;6.936;2022-08-14T14:08:05;32.20;65.80
2459;DHT22;1241;50.920;6.936;2022-08-14T14:10:34;32.10;65.90
2459;DHT22;1241;50.920;6.936;2022-08-14T14:13:01;32.10;66.50
2459;DHT22;1241;50.920;6.936;2022-08-14T14:15:27;32.10;65.80
2459;DHT22;1241;50.920;6.936;2022-08-14T14:17:53;32.20;64.60
2459;DHT22;1241;50.920;6.936;2022-08-14T14:20:20;32.20;64.90
2459;DHT22;1241;50.920;6.936;2022-08-14T14:22:50;32.20;64.80
2459;DHT22;1241;50.920;6.936;2022-08-14T14:25:19;32.20;65.50
2459;DHT22;1241;50.920;6.936;2022-08-14T14:27:46;32.10;64.90
2459;DHT22;1241;50.920;6.936;2022-08-14T14:30:16;32.10;64.90
2459;DHT22;1241;50.920;6.936;2022-08-14T14:32:46;32.10;65.40
2459;DHT22;1241;50.920;6.936;2022-08-14T14:35:15;32.20;65.40
2459;DHT22;1241;50.920;6.936;2022-08-14T14:37:42;32.30;65.00
2459;DHT22;1241;50.920;6.936;2022-08-14T14:40:09;32.50;64.80
2459;DHT22;1241;50.920;6.936;2022-08-14T14:42:47;32.50;64.70
2459;DHT22;1241;50.920;6.936;2022-08-14T14:45:16;32.60;64.70
2459;DHT22;1241;50.920;6.936;2022-08-14T14:47:51;32.60;62.60
2459;DHT22;1241;50.920;6.936;2022-08-14T14:50:18;32.70;61.40
2459;DHT22;1241;50.920;6.936;2022-08-14T14:52:44;32.90;60.80
2459;DHT22;1241;50.920;6.936;2022-08-14T14:55:11;33.00;60.10
2459;DHT22;1241;50.920;6.936;2022-08-14T14:57:38;33.20;59.60
2459;DHT22;1241;50.920;6.936;2022-08-14T15:00:06;33.30;59.50
2459;DHT22;1241;50.920;6.936;2022-08-14T15:02:34;33.40;59.50
2459;DHT22;1241;50.920;6.936;2022-08-14T15:05:00;33.50;59.40
2459;DHT22;1241;50.920;6.936;2022-08-14T15:07:27;33.70;58.80
2459;DHT22;1241;50.920;6.936;2022-08-14T15:09:53;33.80;58.30
2459;DHT22;1241;50.920;6.936;2022-08-14T15:12:18;33.90;58.10
2459;DHT22;1241;50.920;6.936;2022-08-14T15:14:44;33.80;58.40
2459;DHT22;1241;50.920;6.936;2022-08-14T15:17:10;33.80;58.20
2459;DHT22;1241;50.920;6.936;2022-08-14T15:19:37;33.70;58.90
2459;DHT22;1241;50.920;6.936;2022-08-14T15:22:03;33.80;58.90
2459;DHT22;1241;50.920;6.936;2022-08-14T15:24:30;33.70;58.90
2459;DHT22;1241;50.920;6.936;2022-08-14T15:26:57;33.80;58.90
2459;DHT22;1241;50.920;6.936;2022-08-14T15:29:22;33.80;59.00
2459;DHT22;1241;50.920;6.936;2022-08-14T15:31:48;33.80;58.90
2459;DHT22;1241;50.920;6.936;2022-08-14T15:34:14;33.80;58.80
2459;DHT22;1241;50.920;6.936;2022-08-14T15:36:41;33.70;58.30
2459;DHT22;1241;50.920;6.936;2022-08-14T15:39:10;33.70;58.40
2459;DHT22;1241;50.920;6.936;2022-08-14T15:41:36;33.60;58.30
2459;DHT22;1241;50.920;6.936;2022-08-14T15:44:03;33.60;58.20
2459;DHT22;1241;50.920;6.936;2022-08-14T15:46:30;33.70;58.20
2459;DHT22;1241;50.920;6.936;2022-08-14T15:48:57;33.70;57.10
2459;DHT22;1241;50.920;6.936;2022-08-14T15:51:24;33.50;57.10
2459;DHT22;1241;50.920;6.936;2022-08-14T15:53:49;33.30;57.40
2459;DHT22;1241;50.920;6.936;2022-08-14T15:56:16;33.20;57.10
2459;DHT22;1241;50.920;6.936;2022-08-14T15:58:42;33.20;57.20
2459;DHT22;1241;50.920;6.936;2022-08-14T16:01:07;33.20;57.40
2459;DHT22;1241;50.920;6.936;2022-08-14T16:03:47;33.20;57.30
2459;DHT22;1241;50.920;6.936;2022-08-14T16:06:15;33.30;57.20
2459;DHT22;1241;50.920;6.936;2022-08-14T16:08:46;33.30;57.00
2459;DHT22;1241;50.920;6.936;2022-08-14T16:11:13;33.30;56.90
2459;DHT22;1241;50.920;6.936;2022-08-14T16:13:39;33.40;57.10
2459;DHT22;1241;50.920;6.936;2022-08-14T16:18:41;33.30;57.00
2459;DHT22;1241;50.920;6.936;2022-08-14T16:21:12;33.30;57.00
2459;DHT22;1241;50.920;6.936;2022-08-14T16:23:42;33.30;56.90
2459;DHT22;1241;50.920;6.936;2022-08-14T16:26:11;33.40;57.10